createdAt,value
2019-01-11T00:00:37.896Z,2.00
2019-01-11T00:01:37.848Z,2.50
2019-01-11T00:02:37.806Z,3.10
2019-01-11T00:03:37.761Z,2.80
2019-01-11T00:04:37.755Z,2.60
2019-01-11T00:05:37.670Z,2.40
2019-01-11T00:06:37.629Z,3.00
2019-01-11T00:07:37.577Z,1.90
2019-01-11T00:08:37.546Z,2.90
2019-01-11T00:09:37.494Z,2.20
2019-01-11T00:10:37.454Z,2.90
2019-01-11T00:11:37.409Z,2.00
2019-01-11T00:12:37.365Z,2.00
2019-01-11T00:13:37.321Z,2.90
2019-01-11T00:14:37.298Z,2.90
2019-01-11T00:15:37.227Z,3.10
2019-01-11T00:16:37.187Z,2.70
2019-01-11T00:17:37.143Z,2.60
2019-01-11T00:18:37.091Z,2.30
2019-01-11T00:19:37.053Z,3.60
2019-01-11T00:20:37.004Z,3.00
2019-01-11T00:21:36.961Z,3.40
2019-01-11T00:22:36.915Z,2.50
2019-01-11T00:23:36.870Z,2.20
2019-01-11T00:24:36.826Z,2.40
2019-01-11T00:25:36.778Z,3.70
2019-01-11T00:26:36.771Z,3.20
2019-01-11T00:27:36.689Z,2.20
2019-01-11T00:28:36.725Z,3.60
2019-01-11T00:29:36.639Z,2.20
2019-01-11T00:30:36.562Z,2.00
2019-01-11T00:31:36.518Z,3.10
2019-01-11T00:32:36.501Z,2.90
2019-01-11T00:33:36.429Z,2.60
2019-01-11T00:34:36.420Z,2.10
2019-01-11T00:35:36.339Z,2.50
2019-01-11T00:36:36.298Z,3.30
2019-01-11T00:37:36.253Z,5.40
2019-01-11T00:38:36.210Z,2.50
2019-01-11T00:39:36.163Z,2.80
2019-01-11T00:40:36.116Z,2.20
2019-01-11T00:41:36.067Z,2.10
2019-01-11T00:42:36.030Z,2.30
2019-01-11T00:43:35.983Z,2.00
2019-01-11T00:44:35.937Z,2.10
2019-01-11T00:45:35.895Z,2.60
2019-01-11T00:46:35.879Z,2.90
2019-01-11T00:47:35.803Z,1.70
2019-01-11T00:48:35.762Z,2.10
2019-01-11T00:49:35.712Z,2.30
2019-01-11T00:50:35.674Z,1.70
2019-01-11T00:51:35.625Z,2.50
2019-01-11T00:52:35.583Z,3.20
2019-01-11T00:53:35.540Z,2.30
2019-01-11T00:54:35.496Z,3.00
2019-01-11T00:55:35.448Z,2.50
2019-01-11T00:56:35.461Z,2.20
2019-01-11T00:57:35.376Z,1.90
2019-01-11T00:58:35.313Z,3.00
2019-01-11T00:59:35.269Z,2.00
2019-01-11T01:00:35.223Z,2.50
2019-01-11T01:01:35.202Z,2.60
2019-01-11T01:02:35.137Z,1.70
2019-01-11T01:03:35.097Z,1.80
2019-01-11T01:04:35.045Z,1.80
2019-01-11T01:05:35.004Z,2.70
2019-01-11T01:06:34.957Z,1.70
2019-01-11T01:07:34.911Z,1.80
2019-01-11T01:08:34.867Z,1.90
2019-01-11T01:09:34.826Z,2.70
2019-01-11T01:10:34.784Z,2.20
2019-01-11T01:11:34.853Z,1.70
2019-01-11T01:12:34.778Z,2.00
2019-01-11T01:13:34.647Z,2.20
2019-01-11T01:14:34.609Z,2.90
2019-01-11T01:15:34.557Z,2.40
2019-01-11T01:16:34.555Z,1.90
2019-01-11T01:17:34.471Z,2.10
2019-01-11T01:18:34.432Z,2.50
2019-01-11T01:19:34.384Z,2.00
2019-01-11T01:20:34.334Z,2.00
2019-01-11T01:21:34.287Z,2.70
2019-01-11T01:22:34.246Z,1.60
2019-01-11T01:23:34.240Z,2.10
2019-01-11T01:24:34.158Z,1.70
2019-01-11T01:25:34.137Z,1.90
2019-01-11T01:26:34.065Z,1.70
2019-01-11T01:27:34.024Z,1.90
2019-01-11T01:28:33.980Z,2.50
2019-01-11T01:29:33.975Z,1.90
2019-01-11T01:30:33.889Z,2.10
2019-01-11T01:31:33.847Z,2.40
2019-01-11T01:32:33.799Z,2.60
2019-01-11T01:33:33.757Z,1.60
2019-01-11T01:34:33.706Z,2.20
2019-01-11T01:35:33.669Z,2.50
2019-01-11T01:36:33.617Z,1.70
2019-01-11T01:37:33.579Z,2.70
2019-01-11T01:38:33.535Z,2.20
2019-01-11T01:39:33.533Z,2.40
2019-01-11T01:40:33.442Z,2.50
2019-01-11T01:41:33.449Z,2.90
2019-01-11T01:42:33.353Z,2.70
2019-01-11T01:43:33.311Z,2.40
2019-01-11T01:44:33.265Z,1.90
2019-01-11T01:45:33.222Z,2.00
2019-01-11T01:46:33.233Z,2.30
2019-01-11T01:47:33.139Z,1.60
2019-01-11T01:48:33.084Z,1.90
2019-01-11T01:49:33.039Z,2.20
2019-01-11T01:50:32.995Z,2.10
2019-01-11T01:51:32.959Z,1.50
2019-01-11T01:52:32.941Z,2.40
2019-01-11T01:53:32.867Z,2.30
2019-01-11T01:54:32.823Z,1.60
2019-01-11T01:55:32.774Z,2.20
2019-01-11T01:56:32.727Z,1.50
2019-01-11T01:57:32.683Z,2.70
2019-01-11T01:58:32.635Z,3.40
2019-01-11T01:59:32.597Z,1.90
2019-01-11T02:00:32.551Z,3.20
2019-01-11T02:01:32.550Z,2.40
2019-01-11T02:02:32.458Z,2.00
2019-01-11T02:03:32.420Z,1.50
2019-01-11T02:04:32.372Z,1.80
2019-01-11T02:05:32.329Z,1.90
2019-01-11T02:06:32.283Z,1.50
2019-01-11T02:07:32.241Z,1.90
2019-01-11T02:08:32.230Z,1.50
2019-01-11T02:09:32.146Z,1.90
2019-01-11T02:10:32.103Z,1.80
2019-01-11T02:11:32.055Z,1.90
2019-01-11T02:12:32.031Z,2.00
2019-01-11T02:13:31.970Z,1.70
2019-01-11T02:14:31.921Z,1.70
2019-01-11T02:15:31.881Z,1.30
2019-01-11T02:16:31.835Z,2.30
2019-01-11T02:17:31.819Z,2.00
2019-01-11T02:18:31.767Z,1.90
2019-01-11T02:19:32.997Z,2.30
2019-01-11T02:20:31.653Z,1.60
2019-01-11T02:21:31.612Z,1.50
2019-01-11T02:22:31.560Z,1.80
2019-01-11T02:23:31.520Z,1.50
2019-01-11T02:24:31.476Z,2.50
2019-01-11T02:25:31.434Z,1.80
2019-01-11T02:26:31.388Z,1.40
2019-01-11T02:27:31.349Z,1.60
2019-01-11T02:28:31.318Z,2.30
2019-01-11T02:29:31.254Z,3.60
2019-01-11T02:30:31.206Z,2.70
2019-01-11T02:31:31.167Z,1.80
2019-01-11T02:32:31.120Z,3.20
2019-01-11T02:33:31.074Z,1.70
2019-01-11T02:34:31.031Z,2.70
2019-01-11T02:35:30.986Z,3.00
2019-01-11T02:36:30.934Z,2.30
2019-01-11T02:37:30.890Z,2.30
2019-01-11T02:38:32.282Z,1.70
2019-01-11T02:39:30.805Z,1.80
2019-01-11T02:40:30.763Z,2.90
2019-01-11T02:41:30.717Z,2.40
2019-01-11T02:42:30.669Z,2.20
2019-01-11T02:43:30.622Z,3.00
2019-01-11T02:44:30.582Z,1.70
2019-01-11T02:45:30.533Z,1.50
2019-01-11T02:46:30.507Z,1.90
2019-01-11T02:47:30.444Z,7.10
2019-01-11T02:48:30.400Z,2.00
2019-01-11T02:49:30.358Z,3.30
2019-01-11T02:50:30.323Z,2.90
2019-01-11T02:51:30.268Z,2.60
2019-01-11T02:52:30.223Z,2.10
2019-01-11T02:53:30.178Z,1.50
2019-01-11T02:54:30.132Z,3.30
2019-01-11T02:55:30.086Z,1.70
2019-01-11T02:56:30.042Z,2.90
2019-01-11T02:57:30.002Z,2.10
2019-01-11T02:58:29.952Z,2.70
2019-01-11T02:59:29.907Z,5.90
2019-01-11T03:00:29.857Z,3.40
2019-01-11T03:01:29.814Z,3.70
2019-01-11T03:02:29.772Z,3.30
2019-01-11T03:03:29.727Z,2.30
2019-01-11T03:04:29.683Z,3.70
2019-01-11T03:05:29.638Z,1.70
2019-01-11T03:06:29.593Z,2.70
2019-01-11T03:07:29.551Z,2.20
2019-01-11T03:08:29.503Z,4.90
2019-01-11T03:09:29.461Z,3.80
2019-01-11T03:10:29.417Z,5.60
2019-01-11T03:11:29.375Z,2.30
2019-01-11T03:12:29.336Z,3.80
2019-01-11T03:13:29.280Z,1.70
2019-01-11T03:14:29.234Z,1.80
2019-01-11T03:15:29.197Z,4.60
2019-01-11T03:16:29.142Z,3.70
2019-01-11T10:44:12.602Z,3.30
2019-01-11T10:45:12.482Z,5.60
2019-01-11T10:47:05.243Z,6.40
2019-01-11T10:48:05.191Z,9.30
2019-01-11T10:49:57.991Z,11.10
2019-01-11T10:50:57.917Z,7.90
2019-01-11T10:52:51.225Z,14.20
2019-01-11T10:53:51.119Z,9.50
2019-01-11T10:55:43.947Z,12.30
2019-01-11T10:56:43.863Z,12.10
2019-01-11T10:58:37.148Z,9.00
2019-01-11T10:59:37.078Z,18.80
2019-01-11T11:01:30.339Z,16.80
2019-01-11T11:02:30.279Z,10.30
2019-01-11T11:04:24.095Z,8.80
2019-01-11T11:05:24.021Z,14.40
2019-01-11T11:07:17.284Z,8.30
2019-01-11T11:08:17.257Z,13.80
2019-01-11T11:09:17.188Z,12.70
2019-01-11T11:10:17.179Z,9.20
2019-01-11T11:11:17.097Z,6.80
2019-01-11T11:12:17.073Z,11.40
2019-01-11T11:13:17.005Z,11.60
2019-01-11T11:14:16.997Z,10.00
2019-01-11T11:15:16.917Z,12.10
2019-01-11T11:16:16.905Z,6.80
2019-01-11T11:17:16.827Z,10.00
2019-01-11T11:18:16.784Z,8.70
2019-01-11T11:19:16.735Z,7.80
2019-01-11T11:20:16.685Z,15.30
2019-01-11T11:21:16.646Z,9.20
2019-01-11T11:22:16.596Z,8.80
2019-01-11T11:23:16.556Z,7.90
2019-01-11T11:24:16.507Z,6.80
2019-01-11T11:25:16.462Z,7.60
2019-01-11T11:26:16.414Z,6.60
2019-01-11T11:27:16.373Z,9.60
2019-01-11T11:28:16.332Z,10.10
2019-01-11T11:29:16.284Z,7.70
2019-01-11T11:30:16.238Z,9.20
2019-01-11T11:31:16.193Z,9.10
2019-01-11T11:32:16.154Z,7.40
2019-01-11T11:33:16.108Z,4.90
2019-01-11T11:34:16.062Z,5.70
2019-01-11T11:35:16.020Z,5.90
2019-01-11T11:36:15.972Z,5.80
2019-01-11T11:37:17.804Z,7.60
2019-01-11T11:38:15.883Z,10.00
2019-01-11T11:39:15.843Z,6.70
2019-01-11T11:40:15.800Z,7.30
2019-01-11T11:41:15.755Z,8.60
2019-01-11T11:42:16.907Z,7.20
2019-01-11T11:43:15.663Z,7.60
2019-01-11T11:44:15.618Z,7.00
2019-01-11T11:45:15.575Z,6.60
2019-01-11T11:46:15.529Z,6.00
2019-01-11T11:47:15.486Z,5.90
2019-01-11T11:48:15.446Z,9.10
2019-01-11T11:49:15.400Z,6.50
2019-01-11T11:50:15.353Z,9.00
2019-01-11T11:51:15.309Z,9.00
2019-01-11T11:52:15.266Z,12.10
2019-01-11T11:53:15.219Z,6.20
2019-01-11T11:54:15.228Z,7.20
2019-01-11T11:55:15.136Z,6.00
2019-01-11T11:56:15.086Z,5.00
2019-01-11T11:57:15.052Z,8.00
2019-01-11T11:58:15.002Z,4.30
2019-01-11T11:59:14.961Z,7.20
2019-01-11T12:00:14.915Z,6.40
2019-01-11T12:01:14.877Z,10.70
2019-01-11T12:02:19.306Z,9.90
2019-01-11T12:03:14.783Z,11.90
2019-01-11T12:04:14.735Z,13.60
2019-01-11T12:05:14.697Z,10.20
2019-01-11T12:06:14.645Z,14.70
2019-01-11T12:07:14.605Z,6.60
2019-01-11T12:08:14.558Z,8.70
2019-01-11T12:09:14.525Z,8.00
2019-01-11T12:10:14.471Z,6.90
2019-01-11T12:11:14.452Z,8.70
2019-01-11T12:12:14.386Z,7.40
2019-01-11T12:13:14.346Z,7.50
2019-01-11T12:14:14.293Z,8.80
2019-01-11T12:15:14.256Z,5.40
2019-01-11T12:16:14.213Z,6.50
2019-01-11T12:17:14.175Z,5.70
2019-01-11T12:18:14.127Z,6.80
2019-01-11T12:19:14.106Z,4.90
2019-01-11T12:20:14.038Z,7.80
2019-01-11T12:21:13.996Z,7.70
2019-01-11T12:22:13.949Z,7.60
2019-01-11T12:23:13.905Z,12.40
2019-01-11T12:24:13.862Z,9.00
2019-01-11T12:25:13.826Z,6.80
2019-01-11T12:26:13.775Z,9.60
2019-01-11T12:27:13.730Z,6.90
2019-01-11T12:28:13.684Z,7.70
2019-01-11T12:29:13.649Z,9.50
2019-01-11T12:30:13.599Z,7.70
2019-01-11T14:18:28.647Z,24.60
2019-01-11T14:19:28.568Z,12.50
2019-01-11T14:21:21.814Z,10.50
2019-01-11T14:22:21.761Z,13.60
2019-01-11T14:24:15.592Z,12.10
2019-01-11T14:25:15.484Z,11.60
2019-01-11T14:26:15.534Z,10.30
2019-01-11T14:27:15.387Z,11.10
2019-01-11T14:28:15.342Z,13.30
2019-01-11T14:29:15.288Z,11.40
2019-01-11T14:30:15.249Z,10.30
2019-01-11T14:31:15.195Z,8.00
2019-01-11T14:32:15.146Z,11.70
2019-01-11T14:33:15.098Z,12.40
2019-01-11T14:34:15.080Z,13.90
2019-01-11T14:35:15.004Z,11.60
2019-01-11T14:36:14.959Z,8.40
2019-01-11T17:24:39.177Z,3.20
2019-01-11T17:25:39.050Z,3.70
2019-01-11T17:27:32.437Z,3.60
2019-01-11T17:28:32.356Z,2.80
2019-01-11T17:30:25.143Z,2.90
2019-01-11T17:31:25.094Z,3.10
2019-01-11T17:33:17.912Z,6.00
2019-01-11T17:34:17.833Z,4.40
2019-01-11T17:35:17.779Z,6.30
2019-01-11T17:36:17.744Z,5.30
2019-01-11T17:37:17.692Z,5.10
2019-01-11T17:38:17.644Z,3.10
2019-01-11T17:39:17.595Z,5.60
2019-01-11T17:40:17.546Z,5.40
2019-01-11T17:41:17.499Z,11.00
2019-01-11T17:42:17.455Z,4.20
2019-01-11T17:43:17.407Z,8.10
2019-01-11T17:44:17.365Z,5.10
2019-01-11T17:45:17.313Z,3.50
2019-01-11T17:46:17.277Z,4.60
2019-01-11T17:47:17.215Z,4.40
2019-01-11T17:48:17.178Z,4.80
2019-01-11T17:49:17.176Z,4.80
2019-01-11T17:50:17.121Z,4.20
2019-01-11T17:51:17.039Z,4.60
2019-01-11T17:52:16.993Z,3.30
2019-01-11T17:53:17.004Z,3.90
2019-01-11T17:54:16.902Z,2.80
2019-01-11T17:55:17.471Z,3.50
2019-01-11T17:56:16.818Z,3.00
2019-01-11T17:57:16.767Z,3.20
2019-01-11T17:58:16.749Z,3.40
2019-01-11T17:59:16.708Z,4.70
2019-01-11T18:00:16.670Z,6.00
2019-01-11T18:01:16.582Z,3.70
2019-01-11T18:02:16.539Z,3.60
2019-01-11T18:03:16.494Z,2.90
2019-01-11T18:04:16.450Z,5.20
2019-01-11T18:05:16.410Z,7.00
2019-01-11T18:06:16.365Z,2.50
2019-01-11T18:07:16.318Z,3.20
2019-01-11T18:08:16.290Z,4.40
2019-01-11T18:09:16.227Z,5.70
2019-01-11T18:10:16.220Z,3.00
2019-01-11T18:11:16.144Z,6.40
2019-01-11T18:12:20.023Z,4.10
2019-01-11T18:13:16.050Z,4.60
2019-01-11T18:14:16.003Z,3.70
2019-01-11T18:15:15.967Z,6.20
2019-01-11T18:16:15.979Z,8.70
2019-01-11T18:17:15.874Z,2.80
2019-01-11T18:18:15.838Z,4.50
2019-01-11T18:19:15.793Z,5.70
2019-01-11T18:20:15.742Z,5.20
2019-01-11T18:21:15.708Z,4.70
2019-01-11T18:22:15.696Z,7.40
2019-01-11T18:23:15.617Z,16.30
2019-01-11T18:24:15.569Z,8.10
2019-01-11T18:25:15.525Z,3.90
2019-01-11T18:26:15.505Z,3.80
2019-01-11T18:27:15.435Z,4.00
2019-01-11T18:28:15.439Z,5.40
2019-01-11T18:29:15.372Z,3.80
2019-01-11T18:30:15.298Z,4.10
2019-01-11T18:31:15.700Z,4.40
2019-01-11T18:32:16.541Z,4.60
2019-01-11T18:33:15.175Z,6.70
2019-01-11T18:34:15.130Z,5.10
2019-01-11T18:35:15.085Z,5.10
2019-01-11T18:36:15.072Z,4.60
2019-01-11T18:37:14.997Z,4.30
2019-01-11T18:38:14.957Z,4.10
2019-01-11T18:39:14.912Z,5.00
2019-01-11T18:40:14.901Z,6.40
2019-01-11T18:41:14.829Z,4.70
2019-01-11T18:42:14.779Z,4.80
2019-01-11T18:43:14.777Z,5.20
2019-01-11T18:44:14.689Z,3.60
2019-01-11T18:45:14.645Z,6.70
2019-01-11T18:46:14.629Z,4.00
2019-01-11T18:47:14.557Z,6.20
2019-01-11T18:48:14.511Z,3.00
2019-01-11T18:49:14.475Z,8.90
2019-01-11T18:50:14.490Z,4.30
2019-01-11T18:51:14.382Z,3.70
2019-01-11T18:52:14.355Z,3.10
2019-01-11T18:53:14.298Z,4.40
2019-01-11T18:54:14.975Z,4.40
2019-01-11T18:55:14.211Z,4.20
2019-01-11T18:56:14.200Z,4.80
2019-01-11T18:57:14.186Z,2.80
2019-01-11T18:58:14.079Z,2.30
2019-01-11T18:59:14.037Z,4.50
2019-01-11T19:00:14.017Z,6.00
2019-01-11T19:01:13.946Z,4.60
2019-01-11T19:02:13.901Z,5.80
2019-01-11T19:03:13.861Z,6.50
2019-01-11T19:04:13.810Z,7.50
2019-01-11T19:05:13.771Z,7.50
2019-01-11T19:06:13.761Z,5.80
2019-01-11T19:07:13.683Z,3.60
2019-01-11T19:08:13.637Z,4.00
2019-01-11T19:09:13.602Z,4.70
2019-01-11T19:10:14.535Z,6.20
2019-01-11T19:11:13.538Z,5.50
2019-01-11T19:12:13.480Z,4.50
2019-01-11T19:13:13.420Z,5.40
2019-01-11T19:14:13.420Z,5.90
2019-01-11T19:15:13.331Z,4.00
2019-01-11T19:16:13.318Z,5.00
2019-01-11T19:17:13.252Z,5.40
2019-01-11T19:18:13.199Z,6.10
2019-01-11T19:19:13.229Z,4.20
2019-01-11T19:20:13.132Z,3.40
2019-01-11T19:21:13.066Z,2.50
2019-01-11T19:22:13.024Z,4.10
2019-01-11T19:23:13.025Z,2.20
2019-01-11T19:24:12.953Z,4.00
2019-01-11T19:25:12.895Z,3.80
2019-01-11T19:26:12.853Z,3.60
2019-01-11T19:27:12.815Z,3.70
2019-01-11T19:28:12.763Z,3.50
2019-01-11T19:29:12.720Z,2.10
2019-01-11T19:30:12.676Z,5.20
2019-01-11T19:31:12.632Z,2.80
2019-01-11T19:32:12.586Z,4.90
2019-01-11T19:33:12.557Z,2.90
2019-01-11T19:34:12.509Z,4.20
2019-01-11T19:35:13.313Z,4.70
2019-01-11T19:36:12.457Z,3.90
2019-01-11T19:37:12.371Z,4.60
2019-01-11T19:38:12.325Z,4.90
2019-01-11T19:39:12.288Z,3.70
2019-01-11T19:40:12.236Z,2.40
2019-01-11T19:41:12.195Z,3.10
2019-01-11T19:42:12.260Z,3.70
2019-01-11T19:43:12.124Z,3.60
2019-01-11T19:44:12.062Z,2.60
2019-01-11T19:45:12.016Z,3.20
2019-01-11T19:46:11.979Z,3.80
2019-01-11T19:47:11.935Z,3.20
2019-01-11T19:48:11.955Z,4.70
2019-01-11T19:49:11.883Z,3.20
2019-01-11T19:50:11.833Z,3.40
2019-01-11T19:51:11.806Z,3.90
2019-01-11T19:52:11.781Z,1.90
2019-01-11T19:53:11.681Z,2.50
2019-01-11T19:54:11.666Z,2.10
2019-01-11T19:55:11.611Z,2.30
2019-01-11T19:56:11.583Z,3.60
2019-01-11T19:57:11.551Z,3.30
2019-01-11T19:58:11.445Z,4.80
2019-01-11T19:59:11.463Z,2.90
2019-01-11T20:00:11.423Z,2.40
2019-01-11T20:01:11.417Z,3.10
2019-01-11T20:02:11.321Z,3.20
2019-01-11T20:03:11.235Z,2.10
2019-01-11T20:04:11.232Z,1.90
2019-01-11T20:05:11.219Z,2.40
2019-01-11T20:06:11.153Z,3.10
2019-01-11T20:07:11.170Z,3.70
2019-01-11T20:08:11.046Z,2.40
2019-01-11T20:09:10.991Z,2.40
2019-01-11T20:10:10.931Z,3.80
2019-01-11T20:11:10.928Z,2.10
2019-01-11T20:12:10.893Z,2.20
2019-01-11T20:13:10.803Z,1.90
2019-01-11T20:14:10.785Z,3.70
2019-01-11T20:15:10.727Z,2.20
2019-01-11T20:16:10.687Z,4.80
2019-01-11T20:17:14.207Z,2.90
2019-01-11T20:18:10.574Z,2.50
2019-01-11T20:19:10.532Z,4.20
2019-01-11T20:20:10.499Z,3.00
2019-01-11T20:21:10.447Z,3.30
2019-01-11T20:22:10.404Z,3.10
2019-01-11T20:23:10.366Z,5.80
2019-01-11T20:24:10.323Z,3.30
2019-01-11T20:25:10.276Z,3.30
2019-01-11T20:26:10.230Z,4.40
2019-01-11T20:27:10.188Z,4.30
2019-01-11T20:28:10.145Z,3.10
2019-01-11T20:29:10.101Z,1.80
2019-01-11T20:30:10.068Z,2.30
2019-01-11T20:31:10.067Z,5.50
2019-01-11T20:32:09.971Z,2.20
2019-01-11T20:33:09.938Z,3.30
2019-01-11T20:34:12.177Z,2.40
2019-01-11T20:35:10.124Z,3.30
2019-01-11T20:36:09.949Z,2.60
2019-01-11T20:37:09.752Z,4.00
2019-01-11T20:38:09.702Z,1.70
2019-01-11T20:39:09.760Z,3.20
2019-01-11T20:40:09.721Z,3.40
2019-01-11T20:41:09.576Z,3.50
2019-01-11T20:42:09.536Z,3.80
2019-01-11T20:43:09.530Z,3.40
2019-01-11T20:44:09.444Z,2.10
2019-01-11T20:45:09.453Z,2.40
2019-01-11T20:46:09.360Z,5.00
2019-01-11T20:47:09.369Z,3.90
2019-01-11T20:48:09.279Z,3.30
2019-01-11T20:49:09.287Z,5.30
2019-01-11T20:50:09.208Z,3.90
2019-01-11T20:51:09.138Z,6.00
2019-01-11T20:52:09.106Z,3.80
2019-01-11T20:53:09.050Z,3.20
2019-01-11T20:54:09.866Z,3.40
2019-01-11T20:55:08.974Z,2.30
2019-01-11T20:56:08.919Z,2.70
2019-01-11T20:57:08.983Z,3.50
2019-01-11T20:58:08.830Z,2.00
2019-01-11T20:59:08.826Z,4.10
2019-01-11T21:00:08.742Z,2.50
2019-01-11T21:01:08.759Z,3.20
2019-01-11T21:02:08.748Z,5.00
2019-01-11T21:03:08.703Z,5.90
2019-01-11T21:04:08.698Z,2.10
2019-01-11T21:05:08.610Z,2.90
2019-01-11T21:06:08.542Z,1.70
2019-01-11T21:07:08.485Z,2.80
2019-01-11T21:08:08.649Z,2.20
2019-01-11T21:09:08.397Z,4.00
2019-01-11T21:10:08.305Z,2.60
2019-01-11T21:11:08.297Z,1.80
2019-01-11T21:12:08.310Z,2.40
2019-01-11T21:13:08.181Z,3.10
2019-01-11T21:14:08.211Z,2.80
2019-01-11T21:15:08.091Z,2.70
2019-01-11T21:16:08.041Z,3.20
2019-01-11T21:17:08.125Z,3.20
2019-01-11T21:18:08.216Z,1.70
2019-01-11T21:19:08.018Z,2.20
2019-01-11T21:20:07.923Z,2.40
2019-01-11T21:21:07.888Z,2.10
2019-01-11T21:22:07.787Z,5.70
2019-01-11T21:23:07.739Z,3.90
